Time;durP1;ratioP1;P1;durP2;ratioP2;P2;SDS_P1;SDS_P2;PMS_P1;PMS_P2;Temp;Humidity;BMP_temperature;BMP_pressure;BME280_temperature;BME280_humidity;BME280_pressure;Samples;Min_cycle;Max_cycle;Signal;HPM_P1;HPM_P2
2024/02/17 00:01:49;;;;;;;5.82;1.95;;;;;;;11.90;89.18;101422.34;15787681;28;20118;-73
2024/02/17 00:09:24;;;;;;;0.20;0.15;;;;;;;11.81;88.96;101453.94;15789182;28;20044;-73
2024/02/17 00:16:58;;;;;;;0.38;0.38;;;;;;;11.80;88.24;101468.44;15772520;28;20150;-74
2024/02/17 00:24:35;;;;;;;0.08;0.08;;;;;;;11.48;87.73;101473.44;15760898;28;20144;-72
2024/02/17 00:32:10;;;;;;;0.00;0.00;;;;;;;11.36;86.04;101490.31;15784888;28;20316;-73
2024/02/17 00:39:45;;;;;;;0.00;0.00;;;;;;;11.23;85.91;101494.56;15787163;28;20105;-73
2024/02/17 00:47:19;;;;;;;0.28;0.05;;;;;;;11.35;84.23;101477.91;15788109;28;20139;-72
2024/02/17 00:54:55;;;;;;;0.15;0.15;;;;;;;11.46;83.53;101488.09;15788335;28;20088;-73
2024/02/17 01:02:32;;;;;;;0.00;0.00;;;;;;;11.06;84.24;101516.56;15766644;28;20455;-73
2024/02/17 01:10:08;;;;;;;0.80;0.60;;;;;;;11.35;83.52;101529.81;15766258;28;20405;-73
2024/02/17 01:17:42;;;;;;;0.00;0.00;;;;;;;10.92;84.95;101529.06;15788188;28;20125;-74
2024/02/17 01:25:17;;;;;;;0.00;0.00;;;;;;;11.16;83.55;101539.38;15763532;28;20040;-71
2024/02/17 01:32:51;;;;;;;0.00;0.00;;;;;;;11.31;83.05;101522.31;15784816;28;20048;-75
2024/02/17 01:40:31;;;;;;;0.00;0.00;;;;;;;11.10;83.17;101524.03;15786225;28;20120;-75
2024/02/17 01:48:06;;;;;;;0.22;0.22;;;;;;;11.09;82.84;101530.41;15782915;28;20127;-75
2024/02/17 01:55:42;;;;;;;0.08;0.08;;;;;;;11.17;82.78;101526.78;15783757;28;20044;-74
2024/02/17 02:03:17;;;;;;;0.00;0.00;;;;;;;11.07;83.41;101543.22;15796919;28;20455;-74
2024/02/17 02:10:54;;;;;;;1.45;0.47;;;;;;;11.01;83.57;101541.31;15778882;28;20132;-74
2024/02/17 02:18:28;;;;;;;1.27;1.17;;;;;;;11.09;82.46;101541.16;15782655;28;20052;-75
2024/02/17 02:26:05;;;;;;;0.00;0.00;;;;;;;10.95;83.69;101542.91;15798182;28;20317;-73
2024/02/17 02:33:39;;;;;;;0.30;0.30;;;;;;;10.78;84.58;101546.91;15798349;28;20461;-73
2024/02/17 02:41:15;;;;;;;0.00;0.00;;;;;;;10.84;83.98;101547.97;15776282;28;20066;-73
2024/02/17 02:48:48;;;;;;;0.10;0.10;;;;;;;10.80;83.91;101544.84;15793609;28;20131;-73
2024/02/17 02:56:26;;;;;;;0.10;0.10;;;;;;;10.46;85.20;101558.94;15797145;28;20339;-73
2024/02/17 03:04:01;;;;;;;0.40;0.32;;;;;;;10.27;86.34;101560.38;15790185;28;20130;-73
2024/02/17 03:11:41;;;;;;;0.00;0.00;;;;;;;9.97;87.85;101562.22;15793169;28;20043;-73
2024/02/17 03:19:16;;;;;;;0.00;0.00;;;;;;;10.39;85.96;101571.44;15792063;22;20068;-52
2024/02/17 03:26:52;;;;;;;0.55;0.55;;;;;;;10.19;86.62;101572.00;15746539;28;20149;-54
2024/02/17 03:34:31;;;;;;;0.70;0.57;;;;;;;10.30;87.21;101592.19;15736655;28;20052;-51
2024/02/17 03:42:07;;;;;;;0.00;0.00;;;;;;;10.26;87.41;101600.78;15754521;28;20080;-54
2024/02/17 03:49:41;;;;;;;0.10;0.10;;;;;;;10.22;87.52;101611.88;15737413;28;20059;-51
2024/02/17 03:57:17;;;;;;;0.10;0.10;;;;;;;10.37;87.33;101627.16;15739989;28;20374;-54
2024/02/17 04:04:51;;;;;;;0.30;0.30;;;;;;;10.77;85.49;101639.22;15791148;22;20040;-48
2024/02/17 04:12:26;;;;;;;0.00;0.00;;;;;;;10.38;86.03;101634.19;15792543;28;20043;-48
2024/02/17 04:20:01;;;;;;;0.95;0.90;;;;;;;10.25;85.65;101642.88;15789964;28;20044;-47
2024/02/17 04:27:38;;;;;;;0.93;0.93;;;;;;;10.14;85.27;101660.25;15787881;28;20123;-52
2024/02/17 04:35:12;;;;;;;0.00;0.00;;;;;;;10.31;83.59;101660.94;15787837;28;20148;-50
2024/02/17 04:42:51;;;;;;;0.00;0.00;;;;;;;10.03;84.18;101670.63;15787213;28;20063;-46
2024/02/17 04:50:29;;;;;;;0.00;0.00;;;;;;;10.00;83.87;101679.88;15775159;28;20493;-48
2024/02/17 04:58:06;;;;;;;0.70;0.70;;;;;;;10.04;83.20;101683.84;15789505;28;20054;-47
2024/02/17 05:05:41;;;;;;;0.85;0.10;;;;;;;9.60;84.79;101689.13;15784584;28;20086;-49
2024/02/17 05:13:16;;;;;;;0.35;0.35;;;;;;;9.39;85.82;101697.84;15791870;28;20067;-47
2024/02/17 05:20:50;;;;;;;0.10;0.10;;;;;;;9.44;85.10;101714.22;15791238;28;20048;-48
2024/02/17 05:28:25;;;;;;;0.10;0.10;;;;;;;9.16;86.26;101724.59;15791347;28;20204;-49
2024/02/17 05:35:59;;;;;;;0.00;0.00;;;;;;;9.44;84.48;101724.94;15797530;28;20074;-46
2024/02/17 05:43:33;;;;;;;;;;;;;;;9.50;84.15;101745.63;15798891;28;20071;-54
2024/02/17 05:51:17;;;;;;;0.43;0.20;;;;;;;9.14;85.39;101748.91;15793187;28;20543;-47
2024/02/17 05:58:53;;;;;;;0.10;0.10;;;;;;;9.35;83.81;101761.66;15800786;28;20131;-46
2024/02/17 06:06:30;;;;;;;0.35;0.35;;;;;;;9.22;83.28;101777.47;15798751;28;20040;-48
2024/02/17 06:14:07;;;;;;;0.90;0.75;;;;;;;9.03;83.45;101794.81;15796515;28;20542;-45
2024/02/17 06:21:41;;;;;;;0.65;0.47;;;;;;;9.17;82.39;101811.97;15803999;28;20044;-47
2024/02/17 06:29:20;;;;;;;0.00;0.00;;;;;;;9.36;80.85;101832.97;15800487;28;20066;-46
2024/02/17 06:36:56;;;;;;;0.08;0.08;;;;;;;9.30;80.34;101843.56;15795980;28;20527;-47
2024/02/17 06:44:31;;;;;;;;;;;;;;;9.13;80.84;101854.34;15797803;28;20501;-49
2024/02/17 06:52:05;;;;;;;0.00;0.00;;;;;;;9.45;78.86;101863.25;15798262;28;19920;-48
2024/02/17 06:59:44;;;;;;;0.00;0.00;;;;;;;9.27;79.39;101876.91;15794167;28;20090;-52
2024/02/17 07:07:20;;;;;;;0.00;0.00;;;;;;;9.31;79.25;101893.47;15791895;28;20097;-49
2024/02/17 07:14:55;;;;;;;0.10;0.10;;;;;;;9.13;79.93;101905.25;15796559;28;20415;-48
2024/02/17 07:22:29;;;;;;;0.00;0.00;;;;;;;9.47;78.66;101916.69;15798245;28;20055;-47
2024/02/17 07:30:05;;;;;;;0.00;0.00;;;;;;;9.90;77.05;101920.66;15798740;28;20044;-48
2024/02/17 07:37:39;;;;;;;0.20;0.20;;;;;;;9.48;78.17;101931.78;15799023;28;20044;-47
2024/02/17 07:45:15;;;;;;;0.00;0.00;;;;;;;9.88;76.67;101934.22;15798219;28;20051;-45
2024/02/17 07:52:48;;;;;;;0.00;0.00;;;;;;;9.87;77.01;101955.88;15794047;28;20074;-47
2024/02/17 08:00:26;;;;;;;0.00;0.00;;;;;;;10.02;76.42;101958.63;15793951;28;20051;-52
2024/02/17 08:07:59;;;;;;;0.20;0.20;;;;;;;9.75;76.97;101976.06;15796464;28;20143;-51
2024/02/17 08:15:34;;;;;;;0.28;0.28;;;;;;;9.89;75.18;101981.50;15792600;28;20399;-52
2024/02/17 08:23:09;;;;;;;0.00;0.00;;;;;;;10.24;73.37;101990.06;15792659;28;20656;-52
2024/02/17 08:30:45;;;;;;;0.65;0.20;;;;;;;10.19;72.38;101992.41;15791238;28;20055;-49
2024/02/17 08:38:21;;;;;;;0.00;0.00;;;;;;;10.70;70.83;102007.00;15794159;28;20044;-49
2024/02/17 08:45:57;;;;;;;0.00;0.00;;;;;;;10.57;71.46;102011.31;15786732;28;20036;-47
2024/02/17 08:53:31;;;;;;;0.00;0.00;;;;;;;10.40;71.34;102034.75;15795490;28;20452;-45
2024/02/17 09:01:06;;;;;;;0.00;0.00;;;;;;;10.79;69.86;102031.97;15792313;28;20117;-53
2024/02/17 09:08:41;;;;;;;0.00;0.00;;;;;;;10.64;68.67;102050.69;15793640;28;20048;-47
2024/02/17 09:16:16;;;;;;;0.00;0.00;;;;;;;10.44;69.20;102060.22;15793389;28;20147;-49
2024/02/17 09:23:50;;;;;;;0.00;0.00;;;;;;;10.75;69.54;102075.47;15790047;28;20090;-46
2024/02/17 09:31:25;;;;;;;0.93;0.88;;;;;;;10.42;70.08;102073.81;15790284;28;20089;-49
2024/02/17 09:39:01;;;;;;;0.00;0.00;;;;;;;11.44;68.23;102113.88;15788928;28;20044;-46
2024/02/17 09:46:37;;;;;;;0.00;0.00;;;;;;;11.66;66.01;102128.28;15764437;28;20044;-51
2024/02/17 09:54:15;;;;;;;0.00;0.00;;;;;;;12.75;63.66;102127.47;15787662;28;20592;-50
2024/02/17 10:01:51;;;;;;;0.28;0.13;;;;;;;13.01;63.04;102153.88;15803582;22;20601;-52
2024/02/17 10:09:26;;;;;;;0.00;0.00;;;;;;;13.90;60.73;102147.19;15793123;28;20128;-50
2024/02/17 10:17:07;;;;;;;0.00;0.00;;;;;;;13.86;59.26;102181.00;15733672;28;20045;-51
2024/02/17 10:24:45;;;;;;;0.00;0.00;;;;;;;12.33;62.03;102157.00;15741596;28;20044;-52
2024/02/17 10:32:20;;;;;;;0.00;0.00;;;;;;;11.71;64.46;102193.13;15746253;28;20620;-48
2024/02/17 10:39:54;;;;;;;0.00;0.00;;;;;;;11.75;61.65;102181.00;15752227;28;20075;-51
2024/02/17 10:47:33;;;;;;;0.00;0.00;;;;;;;10.95;63.94;102217.19;15777064;28;20033;-52
2024/02/17 10:55:12;;;;;;;0.00;0.00;;;;;;;12.62;59.74;102218.91;15808154;28;20048;-52
2024/02/17 11:02:49;;;;;;;0.17;0.17;;;;;;;13.72;56.58;102234.03;15803181;28;20044;-50
2024/02/17 11:10:29;;;;;;;0.00;0.00;;;;;;;13.38;54.43;102237.44;15743188;28;20039;-49
2024/02/17 11:18:05;;;;;;;0.00;0.00;;;;;;;13.16;56.96;102256.28;15801336;28;20479;-53
2024/02/17 11:25:41;;;;;;;0.90;0.20;;;;;;;14.06;52.97;102264.84;15799735;28;20048;-50
2024/02/17 11:33:18;;;;;;;0.00;0.00;;;;;;;13.53;52.90;102273.31;15802702;28;20058;-49
2024/02/17 11:40:53;;;;;;;0.00;0.00;;;;;;;12.97;54.00;102290.06;15803713;28;20044;-52
2024/02/17 11:48:29;;;;;;;0.00;0.00;;;;;;;12.22;55.75;102290.22;15777286;28;20036;-50
2024/02/17 11:56:05;;;;;;;0.00;0.00;;;;;;;13.30;54.61;102313.91;15804072;28;20054;-49
2024/02/17 12:03:45;;;;;;;0.00;0.00;;;;;;;13.58;52.48;102318.59;15741305;28;20102;-55
2024/02/17 12:11:19;;;;;;;0.00;0.00;;;;;;;14.66;47.62;102330.94;15765582;28;20051;-49
2024/02/17 12:18:55;;;;;;;0.00;0.00;;;;;;;14.17;47.66;102340.72;15803418;28;20131;-53
2024/02/17 12:26:31;;;;;;;0.00;0.00;;;;;;;15.88;45.21;102336.44;15803266;28;20140;-50
2024/02/17 12:34:08;;;;;;;0.00;0.00;;;;;;;14.96;45.95;102345.03;15782494;28;20580;-50
2024/02/17 12:41:44;;;;;;;0.00;0.00;;;;;;;14.06;46.89;102362.88;15729954;28;20101;-51
2024/02/17 12:49:24;;;;;;;0.03;0.00;;;;;;;13.08;51.07;102379.56;15775312;28;20130;-50
2024/02/17 12:56:59;;;;;;;0.00;0.00;;;;;;;13.13;48.55;102374.44;15796011;28;20047;-51
2024/02/17 13:04:35;;;;;;;0.00;0.00;;;;;;;12.75;50.08;102383.44;15796413;28;20050;-50
2024/02/17 13:12:12;;;;;;;0.13;0.13;;;;;;;11.43;53.40;102414.19;15795209;28;20553;-52
2024/02/17 13:19:49;;;;;;;0.80;0.80;;;;;;;11.29;53.36;102424.81;15804746;28;20055;-49
2024/02/17 13:27:23;;;;;;;0.00;0.00;;;;;;;11.83;52.67;102430.31;15799151;28;20124;-50
2024/02/17 13:34:58;;;;;;;0.00;0.00;;;;;;;10.80;54.05;102433.00;15796765;28;20102;-51
2024/02/17 13:42:32;;;;;;;0.00;0.00;;;;;;;11.06;54.27;102455.13;15795855;28;20043;-51
2024/02/17 13:50:09;;;;;;;0.32;0.32;;;;;;;10.60;54.83;102465.56;15749819;28;20060;-51
2024/02/17 13:57:43;;;;;;;0.00;0.00;;;;;;;10.51;54.51;102471.94;15745768;28;20049;-49
2024/02/17 14:05:18;;;;;;;0.00;0.00;;;;;;;10.29;54.95;102480.66;15789177;28;20497;-48
2024/02/17 14:12:52;;;;;;;5.72;1.55;;;;;;;10.58;54.12;102485.53;15788639;28;20040;-50
2024/02/17 14:20:27;;;;;;;0.00;0.00;;;;;;;10.32;54.96;102499.13;15809138;28;20046;-50
2024/02/17 14:28:02;;;;;;;0.00;0.00;;;;;;;9.27;56.97;102506.53;15808075;28;20051;-49
2024/02/17 14:35:38;;;;;;;0.32;0.32;;;;;;;10.33;54.72;102519.56;15809482;28;20044;-48
2024/02/17 14:43:14;;;;;;;0.77;0.45;;;;;;;10.19;55.93;102542.50;15783260;28;20041;-52
2024/02/17 14:50:50;;;;;;;0.77;0.30;;;;;;;9.86;56.90;102546.91;15794407;28;20532;-47
2024/02/17 14:58:23;;;;;;;0.40;0.25;;;;;;;9.73;57.34;102554.53;15804218;28;20134;-51
2024/02/17 15:06:02;;;;;;;1.80;0.95;;;;;;;9.74;57.81;102557.06;15802862;28;20063;-53
2024/02/17 15:13:35;;;;;;;0.00;0.00;;;;;;;9.89;56.05;102562.69;15781276;28;20588;-51
2024/02/17 15:21:11;;;;;;;0.00;0.00;;;;;;;9.40;57.77;102575.81;15806912;28;20505;-54
2024/02/17 15:28:45;;;;;;;0.00;0.00;;;;;;;9.61;58.95;102594.22;15807518;28;20040;-48
2024/02/17 15:36:20;;;;;;;0.00;0.00;;;;;;;9.91;57.92;102600.91;15797880;28;20392;-51
2024/02/17 15:43:54;;;;;;;0.00;0.00;;;;;;;10.11;56.26;102615.75;15746640;28;20044;-51
2024/02/17 15:51:32;;;;;;;0.00;0.00;;;;;;;9.73;59.27;102624.25;15770877;28;20045;-48
2024/02/17 15:59:06;;;;;;;0.00;0.00;;;;;;;8.65;61.52;102627.06;15747095;28;20054;-49
2024/02/17 16:06:44;;;;;;;0.08;0.08;;;;;;;9.45;59.13;102653.91;15740856;28;20064;-51
2024/02/17 16:14:19;;;;;;;0.05;0.05;;;;;;;9.03;59.87;102661.75;15783670;28;20062;-50
2024/02/17 16:21:56;;;;;;;0.22;0.22;;;;;;;8.99;61.03;102682.63;15800156;28;20119;-48
2024/02/17 16:29:30;;;;;;;0.00;0.00;;;;;;;9.37;60.04;102684.19;15806834;28;20036;-48
2024/02/17 16:37:07;;;;;;;0.20;0.20;;;;;;;8.97;60.89;102700.69;15806424;28;20044;-54
2024/02/17 16:44:43;;;;;;;0.30;0.30;;;;;;;9.38;60.14;102712.66;15798973;28;20068;-51
2024/02/17 16:52:19;;;;;;;0.10;0.10;;;;;;;9.23;60.65;102727.56;15756124;28;20127;-49
2024/02/17 16:59:54;;;;;;;0.10;0.10;;;;;;;9.05;60.45;102724.91;15797435;28;20067;-51
2024/02/17 17:07:29;;;;;;;0.57;0.57;;;;;;;8.84;61.71;102733.19;15789970;28;20045;-50
2024/02/17 17:15:05;;;;;;;0.20;0.10;;;;;;;8.40;62.01;102692.84;15789955;28;20089;-49
2024/02/17 17:22:40;;;;;;;0.28;0.28;;;;;;;8.87;61.03;102746.28;15740345;28;20052;-48
2024/02/17 17:30:14;;;;;;;0.00;0.00;;;;;;;8.73;61.29;102756.66;15772667;28;20040;-54
2024/02/17 17:37:49;;;;;;;0.10;0.10;;;;;;;8.55;62.28;102762.78;15808087;28;20039;-54
2024/02/17 17:45:26;;;;;;;0.00;0.00;;;;;;;8.12;63.45;102760.66;15798470;28;20044;-52
2024/02/17 17:53:00;;;;;;;;;;;;;;;8.59;62.21;102772.22;15746077;28;20044;-51
2024/02/17 18:00:35;;;;;;;0.22;0.22;;;;;;;8.43;62.41;102777.34;15748267;28;20023;-49
2024/02/17 18:08:10;;;;;;;0.57;0.55;;;;;;;8.27;63.48;102790.47;15750416;28;20043;-51
2024/02/17 18:15:50;;;;;;;1.75;1.65;;;;;;;8.22;62.81;102798.06;15808412;28;20048;-49
2024/02/17 18:23:25;;;;;;;13.63;1.30;;;;;;;8.18;63.17;102808.22;15810814;28;20059;-50
2024/02/17 18:30:59;;;;;;;0.75;0.65;;;;;;;8.32;62.87;102823.81;15756158;28;20033;-48
2024/02/17 18:38:33;;;;;;;;;;;;;;;8.66;62.20;102826.00;15760792;28;20044;-52
2024/02/17 18:46:08;;;;;;;0.47;0.45;;;;;;;8.87;61.57;102825.78;15789001;28;19920;-54
2024/02/17 18:53:45;;;;;;;0.25;0.25;;;;;;;8.59;62.53;102835.63;15789660;28;20138;-51
2024/02/17 19:01:18;;;;;;;0.10;0.10;;;;;;;8.17;63.37;102839.47;15776409;28;20036;-52
2024/02/17 19:08:53;;;;;;;0.00;0.00;;;;;;;8.05;64.34;102840.59;15766242;28;20044;-49
2024/02/17 19:16:29;;;;;;;0.20;0.20;;;;;;;8.03;64.42;102847.09;15804345;28;20056;-49
2024/02/17 19:24:05;;;;;;;2.75;2.42;;;;;;;8.39;63.41;102856.22;15802238;28;20063;-48
2024/02/17 19:31:39;;;;;;;0.00;0.00;;;;;;;8.60;62.56;102864.91;15800904;28;20357;-49
2024/02/17 19:39:15;;;;;;;0.63;0.52;;;;;;;8.46;62.82;102861.84;15805073;28;20117;-51
2024/02/17 19:46:49;;;;;;;0.00;0.00;;;;;;;8.78;62.04;102878.38;15785544;28;20058;-48
2024/02/17 19:54:23;;;;;;;0.00;0.00;;;;;;;8.62;61.93;102883.50;15788123;28;20063;-51
2024/02/17 20:01:58;;;;;;;4.10;1.45;;;;;;;8.37;62.91;102896.50;15801481;28;20040;-49
2024/02/17 20:09:33;;;;;;;0.00;0.00;;;;;;;8.68;61.69;102910.56;15791028;28;20044;-48
2024/02/17 20:17:09;;;;;;;0.00;0.00;;;;;;;8.34;62.08;102907.44;15800303;28;20052;-53
2024/02/17 20:24:52;;;;;;;0.00;0.00;;;;;;;7.86;61.90;102905.63;15800907;28;20047;-54
2024/02/17 20:32:26;;;;;;;1.20;0.93;;;;;;;7.44;63.28;102907.66;15789960;28;20047;-50
2024/02/17 20:40:04;;;;;;;;;;;;;;;7.55;62.40;102915.53;15782835;28;20036;-49
2024/02/17 20:47:37;;;;;;;0.00;0.00;;;;;;;7.95;62.32;102917.31;15798436;28;19920;-48
2024/02/17 20:55:14;;;;;;;0.35;0.35;;;;;;;8.10;61.56;102912.41;15799565;28;20147;-53
2024/02/17 21:02:48;;;;;;;0.00;0.00;;;;;;;7.83;62.55;102921.97;15795309;28;20514;-52
2024/02/17 21:10:30;;;;;;;0.00;0.00;;;;;;;7.64;63.19;102924.56;15794422;28;20040;-49
2024/02/17 21:18:04;;;;;;;0.10;0.10;;;;;;;7.70;62.50;102908.00;15784114;28;20068;-50
2024/02/17 21:25:42;;;;;;;0.00;0.00;;;;;;;7.93;61.73;102933.50;15736395;28;20450;-49
2024/02/17 21:33:16;;;;;;;0.52;0.52;;;;;;;7.74;62.05;102945.97;15749242;28;20069;-50
2024/02/17 21:40:51;;;;;;;;;;;;;;;8.16;60.67;102958.16;15780902;28;20409;-51
2024/02/17 21:48:27;;;;;;;0.00;0.00;;;;;;;7.76;62.18;102954.72;15783020;28;19920;-51
2024/02/17 21:56:02;;;;;;;0.00;0.00;;;;;;;8.36;60.88;102961.72;15750978;28;20138;-49
2024/02/17 22:03:35;;;;;;;0.00;0.00;;;;;;;7.80;62.40;102957.00;15796527;28;20499;-49
2024/02/17 22:11:10;;;;;;;0.00;0.00;;;;;;;7.83;62.28;102958.53;15779236;28;20097;-51
2024/02/17 22:18:45;;;;;;;0.00;0.00;;;;;;;8.62;60.59;102958.44;15747308;28;20044;-49
2024/02/17 22:26:19;;;;;;;;;;;;;;;8.05;61.64;102955.59;15805646;28;20046;-53
2024/02/17 22:33:54;;;;;;;0.00;0.00;;;;;;;8.28;61.40;102968.72;15805436;28;19924;-51
2024/02/17 22:41:29;;;;;;;0.10;0.10;;;;;;;8.35;62.29;102978.75;15804306;28;20050;-54
2024/02/17 22:49:06;;;;;;;0.00;0.00;;;;;;;8.22;61.44;102975.50;15774910;28;20036;-50
2024/02/17 22:56:48;;;;;;;0.00;0.00;;;;;;;8.22;62.18;102983.50;15784921;28;20488;-52
2024/02/17 23:04:22;;;;;;;0.00;0.00;;;;;;;8.01;62.55;102991.63;15780447;28;20032;-52
2024/02/17 23:11:57;;;;;;;;;;;;;;;8.14;62.75;102978.84;15790018;28;20500;-51
2024/02/17 23:19:30;;;;;;;0.15;0.15;;;;;;;8.18;62.11;102969.56;15776481;28;20326;-52
2024/02/17 23:27:05;;;;;;;;;;;;;;;7.76;62.62;102976.13;15803535;28;20108;-53
2024/02/17 23:34:40;;;;;;;0.17;0.17;;;;;;;7.42;63.38;102971.09;15779361;28;20431;-53
2024/02/17 23:42:15;;;;;;;0.00;0.00;;;;;;;7.50;63.19;102968.56;15782945;28;20054;-53
2024/02/17 23:49:51;;;;;;;0.00;0.00;;;;;;;7.24;62.22;102964.69;15782236;28;20449;-50
2024/02/17 23:57:26;;;;;;;0.45;0.43;;;;;;;8.13;60.07;102963.78;15775394;28;20341;-51
